sensor_id;sensor_type;location;lat;lon;timestamp;P1;durP1;ratioP1;P2;durP2;ratioP2
20997;SDS011;10657;51.276;6.390;2023-06-10T00:00:07;9.05;;;6.40;;
20997;SDS011;10657;51.276;6.390;2023-06-10T00:02:34;9.63;;;6.05;;
20997;SDS011;10657;51.276;6.390;2023-06-10T00:05:01;12.07;;;6.38;;
20997;SDS011;10657;51.276;6.390;2023-06-10T00:07:28;11.35;;;5.85;;
20997;SDS011;10657;51.276;6.390;2023-06-10T00:09:55;9.25;;;6.13;;
20997;SDS011;10657;51.276;6.390;2023-06-10T00:12:23;10.77;;;6.97;;
20997;SDS011;10657;51.276;6.390;2023-06-10T00:14:49;10.02;;;6.35;;
20997;SDS011;10657;51.276;6.390;2023-06-10T00:17:17;10.30;;;6.18;;
20997;SDS011;10657;51.276;6.390;2023-06-10T00:19:44;8.80;;;5.55;;
20997;SDS011;10657;51.276;6.390;2023-06-10T00:22:12;10.88;;;7.20;;
20997;SDS011;10657;51.276;6.390;2023-06-10T00:24:40;11.55;;;7.40;;
20997;SDS011;10657;51.276;6.390;2023-06-10T00:27:08;10.75;;;7.60;;
20997;SDS011;10657;51.276;6.390;2023-06-10T00:29:34;11.13;;;7.80;;
20997;SDS011;10657;51.276;6.390;2023-06-10T00:32:01;10.90;;;7.40;;
20997;SDS011;10657;51.276;6.390;2023-06-10T00:34:28;9.60;;;7.00;;
20997;SDS011;10657;51.276;6.390;2023-06-10T00:36:55;13.38;;;8.10;;
20997;SDS011;10657;51.276;6.390;2023-06-10T00:39:21;11.27;;;7.40;;
20997;SDS011;10657;51.276;6.390;2023-06-10T00:41:48;11.98;;;8.07;;
20997;SDS011;10657;51.276;6.390;2023-06-10T00:44:15;11.02;;;8.02;;
20997;SDS011;10657;51.276;6.390;2023-06-10T00:46:42;10.73;;;8.23;;
20997;SDS011;10657;51.276;6.390;2023-06-10T00:49:09;11.13;;;7.60;;
20997;SDS011;10657;51.276;6.390;2023-06-10T00:51:36;10.65;;;7.85;;
20997;SDS011;10657;51.276;6.390;2023-06-10T00:54:02;12.18;;;8.15;;
20997;SDS011;10657;51.276;6.390;2023-06-10T00:56:30;10.32;;;7.95;;
20997;SDS011;10657;51.276;6.390;2023-06-10T00:58:58;13.82;;;8.32;;
20997;SDS011;10657;51.276;6.390;2023-06-10T01:01:25;11.63;;;7.95;;
20997;SDS011;10657;51.276;6.390;2023-06-10T01:03:52;12.93;;;8.88;;
20997;SDS011;10657;51.276;6.390;2023-06-10T01:06:23;11.93;;;8.52;;
20997;SDS011;10657;51.276;6.390;2023-06-10T01:09:06;14.73;;;8.90;;
20997;SDS011;10657;51.276;6.390;2023-06-10T01:11:44;13.30;;;8.93;;
20997;SDS011;10657;51.276;6.390;2023-06-10T01:14:16;14.15;;;9.00;;
20997;SDS011;10657;51.276;6.390;2023-06-10T01:16:49;12.02;;;8.35;;
20997;SDS011;10657;51.276;6.390;2023-06-10T01:19:19;12.57;;;8.73;;
20997;SDS011;10657;51.276;6.390;2023-06-10T01:21:45;11.48;;;7.85;;
20997;SDS011;10657;51.276;6.390;2023-06-10T01:24:14;13.70;;;8.40;;
20997;SDS011;10657;51.276;6.390;2023-06-10T01:26:44;12.10;;;8.20;;
20997;SDS011;10657;51.276;6.390;2023-06-10T01:29:17;11.27;;;8.23;;
20997;SDS011;10657;51.276;6.390;2023-06-10T01:32:01;11.20;;;7.72;;
20997;SDS011;10657;51.276;6.390;2023-06-10T01:34:33;11.23;;;7.70;;
20997;SDS011;10657;51.276;6.390;2023-06-10T01:37:03;11.98;;;8.23;;
20997;SDS011;10657;51.276;6.390;2023-06-10T01:39:31;10.02;;;7.40;;
20997;SDS011;10657;51.276;6.390;2023-06-10T01:41:58;13.73;;;7.68;;
20997;SDS011;10657;51.276;6.390;2023-06-10T01:44:26;11.95;;;7.68;;
20997;SDS011;10657;51.276;6.390;2023-06-10T01:46:52;11.07;;;7.22;;
20997;SDS011;10657;51.276;6.390;2023-06-10T01:49:19;10.73;;;7.38;;
20997;SDS011;10657;51.276;6.390;2023-06-10T01:51:48;12.77;;;7.85;;
20997;SDS011;10657;51.276;6.390;2023-06-10T01:54:14;12.70;;;7.95;;
20997;SDS011;10657;51.276;6.390;2023-06-10T01:56:41;10.25;;;7.20;;
20997;SDS011;10657;51.276;6.390;2023-06-10T01:59:08;10.88;;;6.53;;
20997;SDS011;10657;51.276;6.390;2023-06-10T02:01:34;9.52;;;6.72;;
20997;SDS011;10657;51.276;6.390;2023-06-10T02:04:01;9.38;;;6.80;;
20997;SDS011;10657;51.276;6.390;2023-06-10T02:06:28;10.95;;;6.80;;
20997;SDS011;10657;51.276;6.390;2023-06-10T02:08:55;8.88;;;6.63;;
20997;SDS011;10657;51.276;6.390;2023-06-10T02:11:21;9.63;;;6.15;;
20997;SDS011;10657;51.276;6.390;2023-06-10T02:13:48;9.38;;;5.82;;
20997;SDS011;10657;51.276;6.390;2023-06-10T02:16:15;12.02;;;6.80;;
20997;SDS011;10657;51.276;6.390;2023-06-10T02:18:43;13.27;;;7.43;;
20997;SDS011;10657;51.276;6.390;2023-06-10T02:21:09;10.38;;;7.57;;
20997;SDS011;10657;51.276;6.390;2023-06-10T02:23:36;11.90;;;8.60;;
20997;SDS011;10657;51.276;6.390;2023-06-10T02:26:03;11.82;;;7.75;;
20997;SDS011;10657;51.276;6.390;2023-06-10T02:28:30;10.88;;;7.72;;
20997;SDS011;10657;51.276;6.390;2023-06-10T02:30:57;12.57;;;8.63;;
20997;SDS011;10657;51.276;6.390;2023-06-10T02:33:24;11.35;;;9.00;;
20997;SDS011;10657;51.276;6.390;2023-06-10T02:35:51;14.07;;;9.52;;
20997;SDS011;10657;51.276;6.390;2023-06-10T02:38:18;12.48;;;9.95;;
20997;SDS011;10657;51.276;6.390;2023-06-10T02:40:44;12.05;;;9.50;;
20997;SDS011;10657;51.276;6.390;2023-06-10T02:43:11;13.00;;;9.63;;
20997;SDS011;10657;51.276;6.390;2023-06-10T02:45:38;12.25;;;9.60;;
20997;SDS011;10657;51.276;6.390;2023-06-10T02:48:04;13.88;;;9.60;;
20997;SDS011;10657;51.276;6.390;2023-06-10T02:50:31;13.85;;;9.60;;
20997;SDS011;10657;51.276;6.390;2023-06-10T02:52:58;13.55;;;9.90;;
20997;SDS011;10657;51.276;6.390;2023-06-10T02:55:25;15.32;;;9.60;;
20997;SDS011;10657;51.276;6.390;2023-06-10T02:57:52;13.82;;;9.40;;
20997;SDS011;10657;51.276;6.390;2023-06-10T03:00:20;12.98;;;9.93;;
20997;SDS011;10657;51.276;6.390;2023-06-10T03:02:47;14.50;;;10.90;;
20997;SDS011;10657;51.276;6.390;2023-06-10T03:05:15;13.13;;;9.48;;
20997;SDS011;10657;51.276;6.390;2023-06-10T03:07:43;13.05;;;10.02;;
20997;SDS011;10657;51.276;6.390;2023-06-10T03:10:09;12.70;;;9.60;;
20997;SDS011;10657;51.276;6.390;2023-06-10T03:12:36;13.27;;;9.10;;
20997;SDS011;10657;51.276;6.390;2023-06-10T03:15:03;14.18;;;9.45;;
20997;SDS011;10657;51.276;6.390;2023-06-10T03:17:31;13.93;;;9.43;;
20997;SDS011;10657;51.276;6.390;2023-06-10T03:19:58;12.60;;;9.80;;
20997;SDS011;10657;51.276;6.390;2023-06-10T03:22:25;13.20;;;10.10;;
20997;SDS011;10657;51.276;6.390;2023-06-10T03:24:52;17.60;;;10.18;;
20997;SDS011;10657;51.276;6.390;2023-06-10T03:27:19;15.13;;;10.30;;
20997;SDS011;10657;51.276;6.390;2023-06-10T03:29:46;14.25;;;10.18;;
20997;SDS011;10657;51.276;6.390;2023-06-10T03:32:13;14.82;;;10.50;;
20997;SDS011;10657;51.276;6.390;2023-06-10T03:34:40;13.15;;;9.95;;
20997;SDS011;10657;51.276;6.390;2023-06-10T03:37:06;12.13;;;9.70;;
20997;SDS011;10657;51.276;6.390;2023-06-10T03:39:33;13.23;;;10.38;;
20997;SDS011;10657;51.276;6.390;2023-06-10T03:42:00;12.25;;;9.77;;
20997;SDS011;10657;51.276;6.390;2023-06-10T03:44:27;13.98;;;10.18;;
20997;SDS011;10657;51.276;6.390;2023-06-10T03:46:54;13.95;;;10.32;;
20997;SDS011;10657;51.276;6.390;2023-06-10T03:49:22;14.38;;;10.77;;
20997;SDS011;10657;51.276;6.390;2023-06-10T03:51:53;12.43;;;9.70;;
20997;SDS011;10657;51.276;6.390;2023-06-10T03:54:20;14.60;;;9.85;;
20997;SDS011;10657;51.276;6.390;2023-06-10T03:56:46;16.02;;;10.02;;
20997;SDS011;10657;51.276;6.390;2023-06-10T03:59:14;12.63;;;9.38;;
20997;SDS011;10657;51.276;6.390;2023-06-10T04:01:41;13.60;;;10.18;;
20997;SDS011;10657;51.276;6.390;2023-06-10T04:04:08;13.13;;;10.13;;
20997;SDS011;10657;51.276;6.390;2023-06-10T04:06:34;13.98;;;10.20;;
20997;SDS011;10657;51.276;6.390;2023-06-10T04:09:01;12.13;;;9.77;;
20997;SDS011;10657;51.276;6.390;2023-06-10T04:11:29;18.13;;;10.25;;
20997;SDS011;10657;51.276;6.390;2023-06-10T04:13:55;13.13;;;9.48;;
20997;SDS011;10657;51.276;6.390;2023-06-10T04:16:22;14.52;;;10.00;;
20997;SDS011;10657;51.276;6.390;2023-06-10T04:18:49;13.75;;;10.23;;
20997;SDS011;10657;51.276;6.390;2023-06-10T04:21:16;16.45;;;11.05;;
20997;SDS011;10657;51.276;6.390;2023-06-10T04:23:42;18.35;;;10.40;;
20997;SDS011;10657;51.276;6.390;2023-06-10T04:26:09;14.82;;;10.65;;
20997;SDS011;10657;51.276;6.390;2023-06-10T04:28:38;12.90;;;10.02;;
20997;SDS011;10657;51.276;6.390;2023-06-10T04:31:05;16.08;;;10.68;;
20997;SDS011;10657;51.276;6.390;2023-06-10T04:33:31;15.93;;;9.80;;
20997;SDS011;10657;51.276;6.390;2023-06-10T04:35:58;16.95;;;10.93;;
20997;SDS011;10657;51.276;6.390;2023-06-10T04:38:25;12.70;;;9.73;;
20997;SDS011;10657;51.276;6.390;2023-06-10T04:40:52;12.52;;;10.07;;
20997;SDS011;10657;51.276;6.390;2023-06-10T04:43:19;14.13;;;10.15;;
20997;SDS011;10657;51.276;6.390;2023-06-10T04:45:46;13.32;;;9.57;;
20997;SDS011;10657;51.276;6.390;2023-06-10T04:48:13;16.77;;;11.07;;
20997;SDS011;10657;51.276;6.390;2023-06-10T04:50:40;15.90;;;10.40;;
20997;SDS011;10657;51.276;6.390;2023-06-10T04:53:06;12.52;;;9.50;;
20997;SDS011;10657;51.276;6.390;2023-06-10T04:55:33;16.15;;;10.23;;
20997;SDS011;10657;51.276;6.390;2023-06-10T04:58:00;11.57;;;8.90;;
20997;SDS011;10657;51.276;6.390;2023-06-10T05:00:27;13.35;;;9.23;;
20997;SDS011;10657;51.276;6.390;2023-06-10T05:02:54;13.15;;;8.68;;
20997;SDS011;10657;51.276;6.390;2023-06-10T05:05:22;11.85;;;9.10;;
20997;SDS011;10657;51.276;6.390;2023-06-10T05:07:49;11.25;;;8.15;;
20997;SDS011;10657;51.276;6.390;2023-06-10T05:10:16;14.20;;;9.80;;
20997;SDS011;10657;51.276;6.390;2023-06-10T05:12:42;11.38;;;8.35;;
20997;SDS011;10657;51.276;6.390;2023-06-10T05:15:09;15.07;;;9.02;;
20997;SDS011;10657;51.276;6.390;2023-06-10T05:17:37;11.40;;;7.93;;
20997;SDS011;10657;51.276;6.390;2023-06-10T05:20:04;9.57;;;6.30;;
20997;SDS011;10657;51.276;6.390;2023-06-10T05:22:31;11.27;;;7.50;;
20997;SDS011;10657;51.276;6.390;2023-06-10T05:24:57;8.55;;;5.70;;
20997;SDS011;10657;51.276;6.390;2023-06-10T05:27:24;11.00;;;5.38;;
20997;SDS011;10657;51.276;6.390;2023-06-10T05:29:51;11.52;;;6.85;;
20997;SDS011;10657;51.276;6.390;2023-06-10T05:32:18;11.98;;;7.32;;
20997;SDS011;10657;51.276;6.390;2023-06-10T05:34:44;14.80;;;8.27;;
20997;SDS011;10657;51.276;6.390;2023-06-10T05:37:12;10.55;;;7.20;;
20997;SDS011;10657;51.276;6.390;2023-06-10T05:39:40;15.35;;;9.82;;
20997;SDS011;10657;51.276;6.390;2023-06-10T05:42:06;8.05;;;5.45;;
20997;SDS011;10657;51.276;6.390;2023-06-10T05:44:34;8.15;;;5.35;;
20997;SDS011;10657;51.276;6.390;2023-06-10T05:47:01;7.75;;;5.35;;
20997;SDS011;10657;51.276;6.390;2023-06-10T05:49:27;12.35;;;9.00;;
20997;SDS011;10657;51.276;6.390;2023-06-10T05:51:54;12.75;;;8.75;;
20997;SDS011;10657;51.276;6.390;2023-06-10T05:54:23;10.98;;;6.80;;
20997;SDS011;10657;51.276;6.390;2023-06-10T05:56:52;10.70;;;6.97;;
20997;SDS011;10657;51.276;6.390;2023-06-10T05:59:19;9.18;;;6.72;;
20997;SDS011;10657;51.276;6.390;2023-06-10T06:01:46;14.38;;;9.45;;
20997;SDS011;10657;51.276;6.390;2023-06-10T06:04:13;11.80;;;6.95;;
20997;SDS011;10657;51.276;6.390;2023-06-10T06:06:39;10.00;;;6.63;;
20997;SDS011;10657;51.276;6.390;2023-06-10T06:09:06;11.85;;;8.30;;
20997;SDS011;10657;51.276;6.390;2023-06-10T06:11:33;11.27;;;8.32;;
20997;SDS011;10657;51.276;6.390;2023-06-10T06:14:01;11.52;;;7.53;;
20997;SDS011;10657;51.276;6.390;2023-06-10T06:16:27;8.00;;;5.10;;
20997;SDS011;10657;51.276;6.390;2023-06-10T06:18:54;8.68;;;5.80;;
20997;SDS011;10657;51.276;6.390;2023-06-10T06:21:21;10.55;;;6.97;;
20997;SDS011;10657;51.276;6.390;2023-06-10T06:23:48;9.88;;;5.72;;
20997;SDS011;10657;51.276;6.390;2023-06-10T06:26:15;9.05;;;5.70;;
20997;SDS011;10657;51.276;6.390;2023-06-10T06:28:41;7.20;;;4.60;;
20997;SDS011;10657;51.276;6.390;2023-06-10T06:31:08;11.98;;;8.32;;
20997;SDS011;10657;51.276;6.390;2023-06-10T06:33:35;12.82;;;7.47;;
20997;SDS011;10657;51.276;6.390;2023-06-10T06:36:02;9.05;;;5.88;;
20997;SDS011;10657;51.276;6.390;2023-06-10T06:38:28;14.15;;;8.90;;
20997;SDS011;10657;51.276;6.390;2023-06-10T06:40:55;8.98;;;6.43;;
20997;SDS011;10657;51.276;6.390;2023-06-10T06:43:22;9.25;;;6.32;;
20997;SDS011;10657;51.276;6.390;2023-06-10T06:45:48;14.55;;;9.68;;
20997;SDS011;10657;51.276;6.390;2023-06-10T06:48:15;11.32;;;8.30;;
20997;SDS011;10657;51.276;6.390;2023-06-10T06:50:42;12.60;;;8.75;;
20997;SDS011;10657;51.276;6.390;2023-06-10T06:53:09;8.57;;;5.93;;
20997;SDS011;10657;51.276;6.390;2023-06-10T06:55:35;8.95;;;5.65;;
20997;SDS011;10657;51.276;6.390;2023-06-10T06:58:02;10.27;;;6.05;;
20997;SDS011;10657;51.276;6.390;2023-06-10T07:00:30;14.25;;;8.60;;
20997;SDS011;10657;51.276;6.390;2023-06-10T07:02:58;11.15;;;8.20;;
20997;SDS011;10657;51.276;6.390;2023-06-10T07:05:25;8.55;;;5.20;;
20997;SDS011;10657;51.276;6.390;2023-06-10T07:07:55;13.50;;;8.13;;
20997;SDS011;10657;51.276;6.390;2023-06-10T07:10:22;8.45;;;5.57;;
20997;SDS011;10657;51.276;6.390;2023-06-10T07:12:53;10.07;;;7.00;;
20997;SDS011;10657;51.276;6.390;2023-06-10T07:15:20;7.70;;;5.15;;
20997;SDS011;10657;51.276;6.390;2023-06-10T07:17:46;9.48;;;6.28;;
20997;SDS011;10657;51.276;6.390;2023-06-10T07:20:13;9.15;;;6.15;;
20997;SDS011;10657;51.276;6.390;2023-06-10T07:22:41;10.43;;;7.50;;
20997;SDS011;10657;51.276;6.390;2023-06-10T07:25:08;9.02;;;5.20;;
20997;SDS011;10657;51.276;6.390;2023-06-10T07:27:35;16.75;;;8.02;;
20997;SDS011;10657;51.276;6.390;2023-06-10T07:30:03;8.57;;;5.85;;
20997;SDS011;10657;51.276;6.390;2023-06-10T07:32:32;9.18;;;5.70;;
20997;SDS011;10657;51.276;6.390;2023-06-10T07:34:59;11.73;;;7.88;;
20997;SDS011;10657;51.276;6.390;2023-06-10T07:37:26;11.82;;;7.05;;
20997;SDS011;10657;51.276;6.390;2023-06-10T07:39:53;13.38;;;7.30;;
20997;SDS011;10657;51.276;6.390;2023-06-10T07:42:20;10.77;;;7.07;;
20997;SDS011;10657;51.276;6.390;2023-06-10T07:44:49;10.70;;;7.13;;
20997;SDS011;10657;51.276;6.390;2023-06-10T07:47:15;8.23;;;5.40;;
20997;SDS011;10657;51.276;6.390;2023-06-10T07:49:42;10.23;;;5.43;;
20997;SDS011;10657;51.276;6.390;2023-06-10T07:52:09;8.38;;;5.85;;
20997;SDS011;10657;51.276;6.390;2023-06-10T07:54:35;10.98;;;7.10;;
20997;SDS011;10657;51.276;6.390;2023-06-10T07:57:02;11.00;;;6.95;;
20997;SDS011;10657;51.276;6.390;2023-06-10T07:59:29;8.00;;;5.25;;
20997;SDS011;10657;51.276;6.390;2023-06-10T08:01:55;11.77;;;7.68;;
20997;SDS011;10657;51.276;6.390;2023-06-10T08:04:22;13.35;;;7.18;;
20997;SDS011;10657;51.276;6.390;2023-06-10T08:06:49;13.75;;;6.53;;
20997;SDS011;10657;51.276;6.390;2023-06-10T08:09:16;11.70;;;6.78;;
20997;SDS011;10657;51.276;6.390;2023-06-10T08:11:46;8.57;;;5.40;;
20997;SDS011;10657;51.276;6.390;2023-06-10T08:14:13;10.60;;;6.10;;
20997;SDS011;10657;51.276;6.390;2023-06-10T08:16:40;10.30;;;6.10;;
20997;SDS011;10657;51.276;6.390;2023-06-10T08:19:07;8.57;;;5.40;;
20997;SDS011;10657;51.276;6.390;2023-06-10T08:21:35;10.80;;;7.65;;
20997;SDS011;10657;51.276;6.390;2023-06-10T08:24:06;9.82;;;6.20;;
20997;SDS011;10657;51.276;6.390;2023-06-10T08:26:33;10.75;;;6.30;;
20997;SDS011;10657;51.276;6.390;2023-06-10T08:29:00;11.35;;;7.30;;
20997;SDS011;10657;51.276;6.390;2023-06-10T08:31:27;15.70;;;8.40;;
20997;SDS011;10657;51.276;6.390;2023-06-10T08:33:54;8.00;;;4.90;;
20997;SDS011;10657;51.276;6.390;2023-06-10T08:36:20;14.43;;;8.00;;
20997;SDS011;10657;51.276;6.390;2023-06-10T08:38:47;11.07;;;6.38;;
20997;SDS011;10657;51.276;6.390;2023-06-10T08:41:14;10.82;;;7.07;;
20997;SDS011;10657;51.276;6.390;2023-06-10T08:43:59;8.57;;;5.32;;
20997;SDS011;10657;51.276;6.390;2023-06-10T08:46:34;8.38;;;5.53;;
20997;SDS011;10657;51.276;6.390;2023-06-10T08:49:02;12.32;;;8.05;;
20997;SDS011;10657;51.276;6.390;2023-06-10T08:51:34;8.73;;;6.05;;
20997;SDS011;10657;51.276;6.390;2023-06-10T08:54:04;14.98;;;9.02;;
20997;SDS011;10657;51.276;6.390;2023-06-10T08:56:38;9.35;;;5.70;;
20997;SDS011;10657;51.276;6.390;2023-06-10T08:59:06;17.20;;;7.85;;
20997;SDS011;10657;51.276;6.390;2023-06-10T09:01:34;11.65;;;7.28;;
20997;SDS011;10657;51.276;6.390;2023-06-10T09:04:01;10.95;;;6.85;;
20997;SDS011;10657;51.276;6.390;2023-06-10T09:06:28;8.43;;;5.53;;
20997;SDS011;10657;51.276;6.390;2023-06-10T09:08:57;9.35;;;6.15;;
20997;SDS011;10657;51.276;6.390;2023-06-10T09:11:28;10.18;;;7.03;;
20997;SDS011;10657;51.276;6.390;2023-06-10T09:13:55;7.97;;;5.10;;
20997;SDS011;10657;51.276;6.390;2023-06-10T09:16:22;10.75;;;5.85;;
20997;SDS011;10657;51.276;6.390;2023-06-10T09:18:49;10.80;;;6.28;;
20997;SDS011;10657;51.276;6.390;2023-06-10T09:21:24;11.38;;;7.68;;
20997;SDS011;10657;51.276;6.390;2023-06-10T09:23:51;8.80;;;5.03;;
20997;SDS011;10657;51.276;6.390;2023-06-10T09:26:18;13.90;;;8.25;;
20997;SDS011;10657;51.276;6.390;2023-06-10T09:28:48;11.48;;;7.07;;
20997;SDS011;10657;51.276;6.390;2023-06-10T09:31:16;14.13;;;8.88;;
20997;SDS011;10657;51.276;6.390;2023-06-10T09:33:47;7.90;;;5.10;;
20997;SDS011;10657;51.276;6.390;2023-06-10T09:36:23;14.25;;;9.30;;
20997;SDS011;10657;51.276;6.390;2023-06-10T09:38:50;16.48;;;9.02;;
20997;SDS011;10657;51.276;6.390;2023-06-10T09:41:17;15.60;;;9.32;;
20997;SDS011;10657;51.276;6.390;2023-06-10T09:43:44;13.32;;;8.70;;
20997;SDS011;10657;51.276;6.390;2023-06-10T09:46:16;9.40;;;5.80;;
20997;SDS011;10657;51.276;6.390;2023-06-10T09:48:44;9.90;;;6.30;;
20997;SDS011;10657;51.276;6.390;2023-06-10T09:51:13;19.13;;;8.80;;
20997;SDS011;10657;51.276;6.390;2023-06-10T09:53:43;14.93;;;8.30;;
20997;SDS011;10657;51.276;6.390;2023-06-10T09:56:15;14.32;;;8.10;;
20997;SDS011;10657;51.276;6.390;2023-06-10T09:58:42;13.65;;;8.80;;
20997;SDS011;10657;51.276;6.390;2023-06-10T10:01:10;7.82;;;5.30;;
20997;SDS011;10657;51.276;6.390;2023-06-10T10:03:47;9.80;;;6.07;;
20997;SDS011;10657;51.276;6.390;2023-06-10T10:06:18;10.90;;;5.88;;
20997;SDS011;10657;51.276;6.390;2023-06-10T10:08:46;8.90;;;5.38;;
20997;SDS011;10657;51.276;6.390;2023-06-10T10:11:16;9.25;;;4.55;;
20997;SDS011;10657;51.276;6.390;2023-06-10T10:13:47;6.82;;;4.50;;
20997;SDS011;10657;51.276;6.390;2023-06-10T10:16:23;7.97;;;5.13;;
20997;SDS011;10657;51.276;6.390;2023-06-10T10:19:01;9.00;;;5.60;;
20997;SDS011;10657;51.276;6.390;2023-06-10T10:21:35;11.13;;;6.88;;
20997;SDS011;10657;51.276;6.390;2023-06-10T10:24:09;10.55;;;6.40;;
20997;SDS011;10657;51.276;6.390;2023-06-10T10:26:42;8.35;;;5.22;;
20997;SDS011;10657;51.276;6.390;2023-06-10T10:29:16;11.27;;;6.72;;
20997;SDS011;10657;51.276;6.390;2023-06-10T10:31:45;8.23;;;5.00;;
20997;SDS011;10657;51.276;6.390;2023-06-10T10:34:16;10.25;;;6.13;;
20997;SDS011;10657;51.276;6.390;2023-06-10T10:36:49;10.80;;;7.03;;
20997;SDS011;10657;51.276;6.390;2023-06-10T10:39:16;8.55;;;4.70;;
20997;SDS011;10657;51.276;6.390;2023-06-10T10:41:44;7.35;;;4.60;;
20997;SDS011;10657;51.276;6.390;2023-06-10T10:44:12;9.18;;;5.78;;
20997;SDS011;10657;51.276;6.390;2023-06-10T10:46:43;12.40;;;6.82;;
20997;SDS011;10657;51.276;6.390;2023-06-10T10:49:11;13.98;;;7.57;;
20997;SDS011;10657;51.276;6.390;2023-06-10T10:51:56;7.93;;;5.03;;
20997;SDS011;10657;51.276;6.390;2023-06-10T10:54:28;8.40;;;5.20;;
20997;SDS011;10657;51.276;6.390;2023-06-10T10:57:09;14.32;;;7.45;;
20997;SDS011;10657;51.276;6.390;2023-06-10T11:00:12;9.95;;;6.57;;
20997;SDS011;10657;51.276;6.390;2023-06-10T11:02:37;10.00;;;6.05;;
20997;SDS011;10657;51.276;6.390;2023-06-10T11:05:13;8.90;;;5.25;;
20997;SDS011;10657;51.276;6.390;2023-06-10T11:07:51;7.82;;;4.60;;
20997;SDS011;10657;51.276;6.390;2023-06-10T11:13:13;14.20;;;7.30;;
20997;SDS011;10657;51.276;6.390;2023-06-10T11:15:43;11.77;;;6.22;;
20997;SDS011;10657;51.276;6.390;2023-06-10T11:18:25;7.35;;;4.68;;
20997;SDS011;10657;51.276;6.390;2023-06-10T11:28:42;10.82;;;5.25;;
20997;SDS011;10657;51.276;6.390;2023-06-10T11:31:32;9.43;;;5.18;;
20997;SDS011;10657;51.276;6.390;2023-06-10T11:34:01;7.95;;;5.00;;
20997;SDS011;10657;51.276;6.390;2023-06-10T11:36:29;7.72;;;4.63;;
20997;SDS011;10657;51.276;6.390;2023-06-10T11:39:03;8.90;;;5.28;;
20997;SDS011;10657;51.276;6.390;2023-06-10T11:41:31;8.00;;;5.50;;
20997;SDS011;10657;51.276;6.390;2023-06-10T11:44:03;11.32;;;6.53;;
20997;SDS011;10657;51.276;6.390;2023-06-10T11:46:30;9.05;;;4.97;;
20997;SDS011;10657;51.276;6.390;2023-06-10T11:48:58;8.60;;;5.57;;
20997;SDS011;10657;51.276;6.390;2023-06-10T11:51:27;9.35;;;5.07;;
20997;SDS011;10657;51.276;6.390;2023-06-10T11:53:55;8.07;;;4.50;;
20997;SDS011;10657;51.276;6.390;2023-06-10T11:56:23;10.32;;;5.97;;
20997;SDS011;10657;51.276;6.390;2023-06-10T11:58:55;8.15;;;5.40;;
20997;SDS011;10657;51.276;6.390;2023-06-10T12:01:24;8.25;;;5.15;;
20997;SDS011;10657;51.276;6.390;2023-06-10T12:04:05;9.63;;;5.57;;
20997;SDS011;10657;51.276;6.390;2023-06-10T12:06:46;10.85;;;7.15;;
20997;SDS011;10657;51.276;6.390;2023-06-10T12:09:21;9.25;;;6.05;;
20997;SDS011;10657;51.276;6.390;2023-06-10T12:11:54;8.27;;;5.18;;
20997;SDS011;10657;51.276;6.390;2023-06-10T12:19:59;10.90;;;7.00;;
20997;SDS011;10657;51.276;6.390;2023-06-10T12:22:40;8.18;;;4.90;;
20997;SDS011;10657;51.276;6.390;2023-06-10T12:25:09;8.80;;;4.85;;
20997;SDS011;10657;51.276;6.390;2023-06-10T12:27:41;9.00;;;5.18;;
20997;SDS011;10657;51.276;6.390;2023-06-10T12:30:21;8.35;;;3.85;;
20997;SDS011;10657;51.276;6.390;2023-06-10T12:32:50;8.48;;;4.70;;
20997;SDS011;10657;51.276;6.390;2023-06-10T12:35:19;9.10;;;6.22;;
20997;SDS011;10657;51.276;6.390;2023-06-10T12:38:21;9.55;;;5.82;;
20997;SDS011;10657;51.276;6.390;2023-06-10T12:40:40;8.02;;;5.05;;
20997;SDS011;10657;51.276;6.390;2023-06-10T12:43:07;14.20;;;8.05;;
20997;SDS011;10657;51.276;6.390;2023-06-10T12:45:35;11.68;;;8.25;;
20997;SDS011;10657;51.276;6.390;2023-06-10T12:48:04;4.53;;;2.15;;
20997;SDS011;10657;51.276;6.390;2023-06-10T12:50:36;8.10;;;4.93;;
20997;SDS011;10657;51.276;6.390;2023-06-10T12:53:04;9.07;;;5.22;;
20997;SDS011;10657;51.276;6.390;2023-06-10T12:55:32;8.77;;;4.95;;
20997;SDS011;10657;51.276;6.390;2023-06-10T12:57:59;6.93;;;2.85;;
20997;SDS011;10657;51.276;6.390;2023-06-10T13:00:27;7.50;;;4.47;;
20997;SDS011;10657;51.276;6.390;2023-06-10T13:02:56;8.68;;;5.53;;
20997;SDS011;10657;51.276;6.390;2023-06-10T13:05:27;9.15;;;6.13;;
20997;SDS011;10657;51.276;6.390;2023-06-10T13:07:54;11.82;;;7.38;;
20997;SDS011;10657;51.276;6.390;2023-06-10T13:10:21;12.55;;;8.00;;
20997;SDS011;10657;51.276;6.390;2023-06-10T13:12:51;11.45;;;6.32;;
20997;SDS011;10657;51.276;6.390;2023-06-10T13:15:18;11.23;;;7.00;;
20997;SDS011;10657;51.276;6.390;2023-06-10T13:17:48;8.98;;;4.88;;
20997;SDS011;10657;51.276;6.390;2023-06-10T13:20:17;13.18;;;7.10;;
20997;SDS011;10657;51.276;6.390;2023-06-10T13:22:45;10.50;;;7.07;;
20997;SDS011;10657;51.276;6.390;2023-06-10T13:25:11;7.57;;;5.07;;
20997;SDS011;10657;51.276;6.390;2023-06-10T13:27:39;8.20;;;3.97;;
20997;SDS011;10657;51.276;6.390;2023-06-10T13:30:07;7.78;;;4.80;;
20997;SDS011;10657;51.276;6.390;2023-06-10T13:32:35;9.57;;;6.32;;
20997;SDS011;10657;51.276;6.390;2023-06-10T13:35:02;11.32;;;6.57;;
20997;SDS011;10657;51.276;6.390;2023-06-10T13:37:30;8.95;;;5.13;;
20997;SDS011;10657;51.276;6.390;2023-06-10T13:39:57;16.95;;;8.52;;
20997;SDS011;10657;51.276;6.390;2023-06-10T13:42:24;9.88;;;6.07;;
20997;SDS011;10657;51.276;6.390;2023-06-10T13:44:52;9.25;;;6.60;;
20997;SDS011;10657;51.276;6.390;2023-06-10T13:47:19;11.05;;;7.13;;
20997;SDS011;10657;51.276;6.390;2023-06-10T13:49:46;9.07;;;6.10;;
20997;SDS011;10657;51.276;6.390;2023-06-10T13:52:13;11.38;;;8.43;;
20997;SDS011;10657;51.276;6.390;2023-06-10T13:54:40;13.05;;;8.50;;
20997;SDS011;10657;51.276;6.390;2023-06-10T13:57:07;8.23;;;5.55;;
20997;SDS011;10657;51.276;6.390;2023-06-10T13:59:36;13.32;;;7.50;;
20997;SDS011;10657;51.276;6.390;2023-06-10T14:02:03;9.25;;;5.70;;
20997;SDS011;10657;51.276;6.390;2023-06-10T14:04:30;13.25;;;8.05;;
20997;SDS011;10657;51.276;6.390;2023-06-10T14:06:57;10.30;;;7.10;;
20997;SDS011;10657;51.276;6.390;2023-06-10T14:09:25;8.63;;;5.00;;
20997;SDS011;10657;51.276;6.390;2023-06-10T14:11:51;10.48;;;5.75;;
20997;SDS011;10657;51.276;6.390;2023-06-10T14:14:18;8.45;;;5.13;;
20997;SDS011;10657;51.276;6.390;2023-06-10T14:16:45;7.53;;;4.47;;
20997;SDS011;10657;51.276;6.390;2023-06-10T14:19:12;8.77;;;3.83;;
20997;SDS011;10657;51.276;6.390;2023-06-10T14:21:39;10.10;;;5.60;;
20997;SDS011;10657;51.276;6.390;2023-06-10T14:24:06;10.40;;;6.43;;
20997;SDS011;10657;51.276;6.390;2023-06-10T14:26:32;8.98;;;6.20;;
20997;SDS011;10657;51.276;6.390;2023-06-10T14:28:59;7.90;;;4.85;;
20997;SDS011;10657;51.276;6.390;2023-06-10T14:31:26;8.15;;;4.80;;
20997;SDS011;10657;51.276;6.390;2023-06-10T14:33:53;9.98;;;7.20;;
20997;SDS011;10657;51.276;6.390;2023-06-10T14:36:19;9.93;;;5.53;;
20997;SDS011;10657;51.276;6.390;2023-06-10T14:38:46;8.05;;;4.90;;
20997;SDS011;10657;51.276;6.390;2023-06-10T14:41:13;7.50;;;4.78;;
20997;SDS011;10657;51.276;6.390;2023-06-10T14:43:40;9.75;;;6.82;;
20997;SDS011;10657;51.276;6.390;2023-06-10T14:46:06;8.95;;;5.13;;
20997;SDS011;10657;51.276;6.390;2023-06-10T14:48:33;8.73;;;5.10;;
20997;SDS011;10657;51.276;6.390;2023-06-10T14:51:00;10.57;;;5.80;;
20997;SDS011;10657;51.276;6.390;2023-06-10T14:53:26;8.27;;;5.13;;
20997;SDS011;10657;51.276;6.390;2023-06-10T14:55:53;8.63;;;5.43;;
20997;SDS011;10657;51.276;6.390;2023-06-10T14:58:20;9.00;;;6.43;;
20997;SDS011;10657;51.276;6.390;2023-06-10T15:00:46;11.40;;;8.23;;